Clayton, Georgia
Current Conditions -  °F | °C
As of 6:55 AM on Thursday 27 Nov 2014 (Local Time) from KTOC Reporting Station
Broken Clouds Broken Clouds  
Wind Chill: 41°   Ceiling: 5500
Heat Index: 41°   Visibility: 10mi
Dew Point: 28°   Wind: 0mph
Humidity: 59%   Direction: NA
Pressure: 30.09"   Gusts: NA
Location:  34.88°N, 83.4°W
Report Text: KTOC 271155Z AUTO 00000KT 10SM SCT050 BKN055 05/M02 A3009 RMK AO2 T00511024 10077 20047
Loading
Personal Weather Stations






























Interactive Weather Map New forecast layout! Learn more

10-Day Weather Forecast

Advertisements
Track Severe Weather on mobile